Iglino, Russia
Current Conditions -  °F | °C
As of 11:30 PM on Thursday 30 Oct 2014 (Local Time) from UWUU Reporting Station
Broken Clouds Broken Clouds  
Wind Chill: 32°   Ceiling: 3300
Heat Index: 37°   Visibility: 6mi
Dew Point: 32°   Wind: 7mph
Humidity: 81%   Direction: 200°SSW
Pressure: 30.3"   Gusts: NA
Location:  54.84°N, 56.44°E
Report Text: UWUU 301830Z 20003MPS 9999 BKN033 03/00 Q1026 640///60 NOSIGRMK QFE759/1012
Loading
Personal Weather Stations






























Interactive Weather Map
Tropical Storm Tracking
New forecast layout! Learn more

10-Day Weather Forecast

Advertisements
Track Severe Weather on mobile